createdAt,value
2019-04-16T00:00:55.703Z,10.43
2019-04-16T00:03:23.102Z,11.63
2019-04-16T00:06:04.592Z,9.18
2019-04-16T00:08:32.971Z,10.23
2019-04-16T00:11:04.266Z,9.35
2019-04-16T00:13:38.171Z,11.15
2019-04-16T00:16:12.763Z,12.70
2019-04-16T00:18:36.678Z,11.10
2019-04-16T00:21:11.111Z,10.50
2019-04-16T00:23:56.418Z,10.85
2019-04-16T00:26:26.469Z,10.32
2019-04-16T00:28:51.233Z,10.23
2019-04-16T00:31:17.779Z,12.20
2019-04-16T00:33:44.280Z,11.65
2019-04-16T00:36:10.714Z,10.80
2019-04-16T00:38:41.061Z,10.50
2019-04-16T00:41:05.819Z,10.78
2019-04-16T00:43:32.650Z,9.20
2019-04-16T00:45:59.199Z,10.48
2019-04-16T00:48:25.679Z,10.90
2019-04-16T00:50:52.136Z,9.18
2019-04-16T00:53:18.715Z,9.40
2019-04-16T00:55:45.836Z,9.58
2019-04-16T00:58:12.434Z,10.68
2019-04-16T01:00:39.187Z,9.75
2019-04-16T01:03:07.250Z,9.70
2019-04-16T01:05:35.239Z,10.03
2019-04-16T01:08:02.197Z,9.83
2019-04-16T01:10:28.668Z,9.30
2019-04-16T01:12:55.115Z,11.20
2019-04-16T01:15:21.791Z,9.45
2019-04-16T01:17:48.167Z,11.08
2019-04-16T01:20:15.099Z,11.30
2019-04-16T01:22:46.572Z,9.90
2019-04-16T01:25:10.432Z,10.35
2019-04-16T01:27:38.811Z,9.95
2019-04-16T01:30:07.020Z,10.32
2019-04-16T01:32:35.384Z,10.10
2019-04-16T01:35:10.360Z,10.63
2019-04-16T01:37:56.762Z,10.72
2019-04-16T01:40:25.317Z,10.45
2019-04-16T01:42:54.390Z,9.60
2019-04-16T01:45:20.357Z,9.90
2019-04-16T01:47:46.811Z,9.80
2019-04-16T01:50:14.079Z,9.98
2019-04-16T01:52:41.025Z,10.65
2019-04-16T01:55:08.930Z,10.98
2019-04-16T01:57:35.347Z,11.10
2019-04-16T02:00:06.834Z,8.68
2019-04-16T02:02:30.487Z,9.90
2019-04-16T02:04:57.045Z,9.93
2019-04-16T02:07:27.757Z,11.15
2019-04-16T02:09:52.775Z,10.45
2019-04-16T02:12:19.443Z,10.78
2019-04-16T02:14:47.366Z,11.25
2019-04-16T02:17:14.069Z,10.20
2019-04-16T02:19:40.612Z,13.22
2019-04-16T02:22:07.442Z,10.70
2019-04-16T02:24:33.917Z,9.78
2019-04-16T02:27:00.380Z,11.45
2019-04-16T02:29:29.677Z,12.75
2019-04-16T02:31:55.242Z,11.83
2019-04-16T02:34:21.723Z,10.70
2019-04-16T02:36:48.273Z,9.88
2019-04-16T02:39:14.745Z,9.68
2019-04-16T02:41:41.302Z,11.70
2019-04-16T02:44:14.009Z,11.33
2019-04-16T02:46:36.128Z,10.95
2019-04-16T02:49:03.023Z,10.72
2019-04-16T02:51:41.313Z,11.78
2019-04-16T02:54:16.668Z,9.78
2019-04-16T02:56:51.708Z,11.00
2019-04-16T02:59:33.852Z,11.55
2019-04-16T03:02:02.702Z,11.03
2019-04-16T03:04:46.199Z,14.15
2019-04-16T03:07:13.287Z,10.75
2019-04-16T03:09:40.917Z,10.72
2019-04-16T03:12:07.611Z,9.83
2019-04-16T03:14:34.360Z,11.40
2019-04-16T03:17:15.301Z,10.30
2019-04-16T03:19:43.757Z,10.90
2019-04-16T03:22:10.308Z,10.32
2019-04-16T03:24:37.544Z,10.40
2019-04-16T03:27:05.561Z,10.45
2019-04-16T03:29:32.319Z,10.65
2019-04-16T03:31:59.733Z,9.45
2019-04-16T03:34:26.398Z,11.75
2019-04-16T03:36:52.953Z,10.55
2019-04-16T03:39:19.430Z,11.12
2019-04-16T03:41:46.400Z,10.25
2019-04-16T03:44:12.968Z,9.05
2019-04-16T03:46:40.140Z,9.65
2019-04-16T03:49:06.876Z,10.68
2019-04-16T03:51:35.419Z,10.13
2019-04-16T03:54:04.760Z,9.53
2019-04-16T03:56:30.490Z,9.70
2019-04-16T03:58:57.738Z,10.63
2019-04-16T04:01:24.184Z,10.20
2019-04-16T04:03:50.546Z,9.63
2019-04-16T04:06:17.388Z,9.08
2019-04-16T04:08:47.916Z,9.98
2019-04-16T04:11:12.097Z,10.28
2019-04-16T04:13:38.543Z,11.12
2019-04-16T04:16:05.117Z,10.30
2019-04-16T04:18:31.651Z,11.20
2019-04-16T04:20:58.129Z,11.80
2019-04-16T04:23:25.555Z,11.30
2019-04-16T04:25:52.952Z,11.03
2019-04-16T04:28:20.516Z,11.12
2019-04-16T04:30:49.013Z,10.75
2019-04-16T04:33:34.311Z,9.95
2019-04-16T04:36:00.804Z,9.78
2019-04-16T04:38:27.253Z,8.95
2019-04-16T04:40:53.705Z,9.53
2019-04-16T04:43:20.317Z,10.05
2019-04-16T04:45:46.736Z,9.55
2019-04-16T04:48:13.417Z,11.55
2019-04-16T04:50:39.973Z,10.82
2019-04-16T04:53:06.545Z,10.60
2019-04-16T04:55:33.101Z,9.75
2019-04-16T04:58:02.482Z,10.28
2019-04-16T05:00:27.940Z,10.63
2019-04-16T05:02:54.526Z,11.20
2019-04-16T05:05:28.844Z,10.10
2019-04-16T05:07:59.725Z,9.30
2019-04-16T05:10:24.092Z,10.85
2019-04-16T05:12:53.545Z,10.05
2019-04-16T05:15:19.040Z,9.43
2019-04-16T05:17:45.497Z,10.85
2019-04-16T05:20:14.910Z,11.10
2019-04-16T05:22:40.603Z,10.28
2019-04-16T05:25:07.224Z,9.10
2019-04-16T05:27:33.707Z,10.38
2019-04-16T05:30:00.276Z,9.08
2019-04-16T05:32:32.897Z,9.75
2019-04-16T05:34:55.104Z,10.50
2019-04-16T05:37:21.761Z,8.98
2019-04-16T05:39:48.555Z,9.65
2019-04-16T05:42:15.205Z,9.48
2019-04-16T05:44:41.679Z,9.05
2019-04-16T05:47:08.128Z,9.50
2019-04-16T05:49:34.577Z,8.98
2019-04-16T05:52:03.747Z,9.85
2019-04-16T05:54:31.408Z,10.63
2019-04-16T05:56:59.779Z,10.90
2019-04-16T05:59:26.255Z,9.38
2019-04-16T06:02:03.811Z,10.20
2019-04-16T06:04:30.372Z,10.18
2019-04-16T06:06:56.739Z,9.60
2019-04-16T06:09:23.264Z,10.50
2019-04-16T06:11:49.648Z,10.35
2019-04-16T06:14:33.076Z,8.90
2019-04-16T06:17:07.233Z,9.90
2019-04-16T06:19:46.825Z,8.93
2019-04-16T06:22:20.688Z,9.53
2019-04-16T06:25:09.743Z,10.43
2019-04-16T06:27:53.000Z,9.25
2019-04-16T06:30:33.863Z,10.63
2019-04-16T06:33:03.443Z,9.38
2019-04-16T06:35:47.524Z,9.60
2019-04-16T06:38:15.911Z,9.65
2019-04-16T06:40:44.270Z,10.32
2019-04-16T06:43:25.232Z,10.28
2019-04-16T06:45:51.719Z,10.35
2019-04-16T06:48:22.983Z,10.58
2019-04-16T06:50:54.453Z,11.12
2019-04-16T06:53:23.821Z,8.70
2019-04-16T06:55:53.186Z,10.05
2019-04-16T06:58:27.504Z,10.38
2019-04-16T07:01:12.371Z,8.88
2019-04-16T07:03:46.743Z,10.40
2019-04-16T07:06:20.778Z,10.65
2019-04-16T07:08:50.061Z,9.35
2019-04-16T07:11:18.912Z,10.88
2019-04-16T07:13:45.492Z,10.82
2019-04-16T07:16:12.071Z,9.40
2019-04-16T07:18:39.272Z,10.98
2019-04-16T07:21:05.813Z,9.50
2019-04-16T07:23:32.652Z,9.68
2019-04-16T07:26:03.061Z,11.40
2019-04-16T07:28:29.726Z,10.48
2019-04-16T07:31:31.773Z,9.98
2019-04-16T07:33:51.402Z,9.45
2019-04-16T07:36:19.785Z,9.77
2019-04-16T07:38:48.137Z,9.00
2019-04-16T07:41:17.183Z,9.70
2019-04-16T07:44:07.834Z,11.25
2019-04-16T07:46:39.403Z,9.27
2019-04-16T07:49:26.371Z,9.97
2019-04-16T07:51:54.645Z,10.40
2019-04-16T07:54:28.801Z,9.50
2019-04-16T07:56:55.554Z,11.30
2019-04-16T07:59:22.123Z,11.40
2019-04-16T08:01:48.851Z,10.43
2019-04-16T08:04:25.509Z,10.00
2019-04-16T08:06:47.195Z,10.30
2019-04-16T08:09:12.202Z,12.37
2019-04-16T08:11:38.667Z,10.10
2019-04-16T08:14:08.630Z,9.57
2019-04-16T08:16:46.581Z,9.90
2019-04-16T08:19:01.690Z,11.40
2019-04-16T08:21:28.356Z,10.10
2019-04-16T08:24:11.799Z,11.10
2019-04-16T08:26:38.257Z,10.73
2019-04-16T08:29:05.039Z,10.70
2019-04-16T08:31:33.602Z,11.53
2019-04-16T08:34:00.503Z,12.00
2019-04-16T08:36:27.171Z,10.67
2019-04-16T08:38:53.631Z,11.40
2019-04-16T08:41:21.570Z,12.30
2019-04-16T08:43:48.248Z,11.50
2019-04-16T08:46:14.613Z,12.27
2019-04-16T08:48:41.158Z,12.20
2019-04-16T08:51:07.747Z,11.90
2019-04-16T08:53:35.771Z,11.47
2019-04-16T08:56:02.470Z,12.70
2019-04-16T08:58:29.020Z,10.60
2019-04-16T09:00:55.997Z,12.53
2019-04-16T09:03:22.445Z,11.77
2019-04-16T09:05:49.285Z,11.27
2019-04-16T09:08:21.803Z,12.53
2019-04-16T09:10:46.467Z,12.27
2019-04-16T09:13:17.920Z,13.57
2019-04-16T09:15:44.517Z,12.97
2019-04-16T09:18:12.870Z,14.30
2019-04-16T09:20:40.448Z,15.00
2019-04-16T09:23:06.895Z,13.50
2019-04-16T09:25:35.380Z,12.17
2019-04-16T09:28:07.670Z,13.00
2019-04-16T09:30:52.632Z,13.53
2019-04-16T09:33:20.884Z,14.00
2019-04-16T09:35:52.471Z,13.67
2019-04-16T09:38:20.948Z,14.70
2019-04-16T09:41:06.293Z,12.90
2019-04-16T09:43:40.652Z,13.40
2019-04-16T09:46:10.973Z,13.07
2019-04-16T09:48:35.689Z,15.30
2019-04-16T09:51:02.236Z,18.40
2019-04-16T09:53:33.921Z,16.00
2019-04-16T09:55:59.295Z,14.10
2019-04-16T09:58:25.971Z,13.53
2019-04-16T10:01:09.576Z,16.43
2019-04-16T10:03:40.659Z,14.20
2019-04-16T10:06:07.251Z,14.07
2019-04-16T10:08:33.830Z,14.20
2019-04-16T10:11:02.749Z,13.40
2019-04-16T10:13:32.853Z,12.67
2019-04-16T10:15:57.109Z,14.13
2019-04-16T10:18:23.726Z,13.63
2019-04-16T10:20:50.277Z,13.33
2019-04-16T10:23:18.615Z,12.43
2019-04-16T10:25:45.656Z,15.60
2019-04-16T10:28:17.057Z,13.63
2019-04-16T10:30:45.642Z,14.70
2019-04-16T10:33:12.631Z,15.33
2019-04-16T10:35:39.313Z,13.90
2019-04-16T10:38:07.705Z,13.90
2019-04-16T10:40:41.892Z,15.90
2019-04-16T10:43:13.264Z,14.57
2019-04-16T10:45:47.769Z,15.30
2019-04-16T10:48:16.130Z,16.30
2019-04-16T10:51:00.172Z,13.57
2019-04-16T10:53:28.599Z,14.60
2019-04-16T10:58:58.932Z,14.30
2019-04-16T11:01:36.673Z,15.50
2019-04-16T11:04:21.927Z,14.77
2019-04-16T11:06:50.716Z,16.07
2019-04-16T11:09:17.123Z,14.53
2019-04-16T11:11:43.727Z,14.90
2019-04-16T11:14:10.277Z,14.47
2019-04-16T11:16:38.795Z,14.60
2019-04-16T11:19:05.377Z,15.67
2019-04-16T11:21:31.811Z,15.43
2019-04-16T11:23:58.277Z,14.63
2019-04-16T11:26:25.028Z,15.23
2019-04-16T11:28:52.036Z,17.00
2019-04-16T11:31:20.375Z,15.13
2019-04-16T11:33:46.879Z,16.53
2019-04-16T11:36:19.429Z,15.37
2019-04-16T11:38:42.097Z,15.37
2019-04-16T11:41:08.753Z,15.37
2019-04-16T11:43:38.137Z,16.60
2019-04-16T11:46:07.220Z,15.90
2019-04-16T11:48:37.296Z,15.97
2019-04-16T11:51:02.886Z,16.30
2019-04-16T11:53:32.286Z,15.63
2019-04-16T11:55:59.132Z,16.83
2019-04-16T11:58:27.557Z,17.27
2019-04-16T12:00:56.040Z,15.87
2019-04-16T12:03:27.228Z,15.70
2019-04-16T12:06:01.490Z,16.23
2019-04-16T12:08:30.540Z,15.70
2019-04-16T12:13:42.263Z,15.43
2019-04-16T12:16:27.744Z,14.90
2019-04-16T12:19:08.396Z,14.40
2019-04-16T12:21:53.509Z,13.90
2019-04-16T12:24:22.161Z,13.20
2019-04-16T12:26:50.765Z,12.67
2019-04-16T12:29:19.142Z,15.10
2019-04-16T12:32:04.293Z,13.77
2019-04-16T12:34:51.629Z,12.77
2019-04-16T12:37:20.025Z,13.97
2019-04-16T12:40:00.831Z,12.97
2019-04-16T12:42:46.035Z,13.97
2019-04-16T12:45:29.711Z,14.10
2019-04-16T12:47:59.126Z,14.13
2019-04-16T12:50:27.693Z,13.13
2019-04-16T12:52:58.878Z,13.63
2019-04-16T12:55:31.452Z,11.10
2019-04-16T12:58:03.882Z,14.10
2019-04-16T13:00:32.396Z,13.67
2019-04-16T13:03:17.552Z,13.10
2019-04-16T13:05:50.979Z,12.10
2019-04-16T13:08:28.681Z,14.37
2019-04-16T13:11:00.608Z,11.77
2019-04-16T13:13:45.616Z,11.63
2019-04-16T13:16:17.086Z,12.43
2019-04-16T13:18:45.571Z,13.13
2019-04-16T13:21:20.058Z,14.10
2019-04-16T13:23:53.967Z,10.80
2019-04-16T13:26:28.604Z,13.77
2019-04-16T13:28:56.591Z,12.63
2019-04-16T13:31:23.184Z,13.03
2019-04-16T13:33:50.925Z,11.30
2019-04-16T13:36:17.636Z,12.87
2019-04-16T13:38:54.925Z,10.37
2019-04-16T13:41:26.263Z,9.00
2019-04-16T13:43:51.871Z,10.77
2019-04-16T13:46:18.336Z,9.57
2019-04-16T13:48:46.834Z,9.83
2019-04-16T13:51:18.830Z,9.43
2019-04-16T13:53:48.376Z,9.43
2019-04-16T13:56:23.165Z,9.17
2019-04-16T13:59:00.872Z,9.70
2019-04-16T14:01:32.727Z,8.77
2019-04-16T14:03:59.526Z,10.30
2019-04-16T14:06:26.276Z,9.87
2019-04-16T14:08:52.776Z,10.40
2019-04-16T14:11:20.506Z,9.87
2019-04-16T14:13:50.084Z,10.77
2019-04-16T14:16:16.037Z,10.60
2019-04-16T14:18:42.517Z,9.97
2019-04-16T14:21:09.169Z,10.10
2019-04-16T14:23:35.962Z,10.03
2019-04-16T14:26:02.745Z,8.73
2019-04-16T14:28:34.220Z,8.60
2019-04-16T14:30:57.799Z,8.87
2019-04-16T14:33:26.273Z,10.30
2019-04-16T14:35:52.933Z,9.07
2019-04-16T14:38:21.319Z,9.07
2019-04-16T14:40:47.757Z,9.90
2019-04-16T14:43:16.635Z,8.90
2019-04-16T14:45:58.297Z,9.23
2019-04-16T14:48:16.415Z,7.90
2019-04-16T14:50:42.876Z,9.70
2019-04-16T14:53:09.648Z,9.57
2019-04-16T14:55:41.938Z,7.90
2019-04-16T14:58:20.988Z,9.33
2019-04-16T15:01:06.518Z,8.87
2019-04-16T15:03:34.982Z,7.33
2019-04-16T15:06:03.892Z,8.47
2019-04-16T15:08:32.344Z,7.47
2019-04-16T15:11:19.159Z,8.03
2019-04-16T15:13:50.541Z,7.43
2019-04-16T15:16:24.716Z,7.67
2019-04-16T15:19:11.345Z,9.23
2019-04-16T15:22:16.804Z,8.30
2019-04-16T15:24:47.997Z,6.70
2019-04-16T15:27:16.487Z,6.60
2019-04-16T15:29:44.870Z,7.50
2019-04-16T15:32:22.207Z,7.97
2019-04-16T15:34:50.559Z,8.10
2019-04-16T15:37:22.661Z,7.80
2019-04-16T15:39:50.018Z,7.20
2019-04-16T15:42:35.685Z,7.17
2019-04-16T15:45:08.461Z,7.80
2019-04-16T15:47:42.919Z,8.60
2019-04-16T15:50:14.491Z,6.37
2019-04-16T15:52:54.972Z,6.77
2019-04-16T15:55:26.428Z,5.40
2019-04-16T15:57:55.077Z,5.40
2019-04-16T16:00:26.324Z,5.30
2019-04-16T16:02:55.077Z,4.80
2019-04-16T16:05:40.076Z,4.33
2019-04-16T16:08:20.614Z,5.10
2019-04-16T16:13:56.643Z,5.40
2019-04-16T16:16:21.738Z,6.17
2019-04-16T16:18:48.249Z,5.70
2019-04-16T16:21:14.802Z,6.20
2019-04-16T16:23:41.725Z,6.73
2019-04-16T16:26:08.372Z,5.27
2019-04-16T16:28:50.519Z,5.63
2019-04-16T16:31:19.134Z,5.77
2019-04-16T16:33:45.762Z,5.37
2019-04-16T16:36:12.312Z,5.53
2019-04-16T16:38:38.775Z,3.93
2019-04-16T16:41:05.364Z,3.97
2019-04-16T16:43:51.880Z,2.70
2019-04-16T16:46:37.264Z,2.33
2019-04-16T16:49:03.942Z,1.70
2019-04-16T16:51:30.413Z,1.63
2019-04-16T16:54:01.810Z,1.73
2019-04-16T16:56:45.403Z,1.30
2019-04-16T16:59:30.361Z,3.63
2019-04-16T17:02:14.061Z,1.13
2019-04-16T17:04:48.460Z,1.00
2019-04-16T17:07:17.696Z,1.13
2019-04-16T17:09:43.633Z,1.50
2019-04-16T17:12:10.511Z,1.40
2019-04-16T17:14:37.961Z,1.20
2019-04-16T17:17:13.166Z,1.30
2019-04-16T17:19:53.021Z,1.90
2019-04-16T17:22:19.578Z,2.07
2019-04-16T17:24:46.058Z,2.90
2019-04-16T17:27:12.732Z,1.87
2019-04-16T17:29:39.733Z,1.63
2019-04-16T17:32:06.528Z,1.80
2019-04-16T17:34:33.091Z,1.90
2019-04-16T17:36:59.902Z,1.60
2019-04-16T17:39:28.518Z,1.70
2019-04-16T17:42:03.974Z,1.50
2019-04-16T17:44:46.639Z,1.80
2019-04-16T17:47:30.802Z,1.40
2019-04-16T17:49:45.398Z,1.83
2019-04-16T17:52:16.748Z,2.10
2019-04-16T17:54:47.859Z,2.27
2019-04-16T17:57:42.826Z,1.87
2019-04-16T18:00:27.887Z,1.90
2019-04-16T18:03:13.251Z,1.63
2019-04-16T18:05:50.927Z,1.73
2019-04-16T18:08:34.973Z,1.80
2019-04-16T18:11:06.130Z,1.87
2019-04-16T18:13:49.125Z,1.63
2019-04-16T18:16:20.703Z,1.63
2019-04-16T18:18:52.220Z,1.63
2019-04-16T18:21:37.620Z,1.63
2019-04-16T18:24:15.440Z,1.80
2019-04-16T18:26:49.739Z,1.93
2019-04-16T18:29:24.036Z,1.90
2019-04-16T18:32:05.005Z,1.93
2019-04-16T18:34:45.493Z,1.70
2019-04-16T18:37:30.660Z,1.80
2019-04-16T18:39:58.928Z,2.10
2019-04-16T18:42:44.417Z,2.20
2019-04-16T18:45:31.233Z,2.30
2019-04-16T18:48:04.698Z,2.40
2019-04-16T18:50:28.787Z,1.50
2019-04-16T18:52:55.388Z,1.90
2019-04-16T18:55:21.931Z,1.60
2019-04-16T18:57:48.769Z,2.20
2019-04-16T19:00:34.100Z,1.83
2019-04-16T19:03:00.782Z,2.10
2019-04-16T19:05:27.560Z,2.23
2019-04-16T19:07:55.842Z,2.00
2019-04-16T19:10:22.504Z,2.07
2019-04-16T19:12:49.133Z,2.63
2019-04-16T19:15:15.837Z,1.97
2019-04-16T19:17:42.615Z,2.33
2019-04-16T19:20:09.267Z,2.40
2019-04-16T19:22:35.628Z,2.47
2019-04-16T19:25:03.661Z,2.40
2019-04-16T19:27:30.743Z,2.70
2019-04-16T19:29:58.443Z,3.80
2019-04-16T19:32:27.776Z,2.37
2019-04-16T19:35:07.876Z,2.70
2019-04-16T19:37:21.728Z,2.97
2019-04-16T19:39:48.207Z,2.30
2019-04-16T19:42:14.741Z,3.47
2019-04-16T19:44:41.212Z,3.00
2019-04-16T19:47:07.786Z,3.43
2019-04-16T19:49:34.551Z,3.97
2019-04-16T19:52:01.118Z,4.40
2019-04-16T19:54:31.415Z,3.40
2019-04-16T19:56:55.890Z,3.13
2019-04-16T19:59:22.645Z,2.47
2019-04-16T20:01:49.251Z,2.50
2019-04-16T20:04:15.612Z,3.17
2019-04-16T20:06:42.097Z,2.63
2019-04-16T20:09:08.674Z,2.70
2019-04-16T20:11:35.168Z,2.70
2019-04-16T20:14:03.081Z,2.57
2019-04-16T20:16:30.138Z,2.50
2019-04-16T20:18:56.602Z,2.70
2019-04-16T20:21:23.086Z,2.83
2019-04-16T20:23:49.564Z,3.10
2019-04-16T20:26:16.019Z,3.40
2019-04-16T20:28:45.426Z,2.97
2019-04-16T20:31:11.084Z,3.50
2019-04-16T20:33:37.640Z,3.17
2019-04-16T20:36:04.347Z,3.30
2019-04-16T20:38:30.908Z,2.97
2019-04-16T20:41:18.988Z,3.10
2019-04-16T20:43:45.704Z,3.67
2019-04-16T20:46:12.268Z,2.70
2019-04-16T20:48:38.991Z,3.60
2019-04-16T20:51:07.316Z,2.90
2019-04-16T20:53:33.791Z,2.73
2019-04-16T20:56:00.552Z,3.27
2019-04-16T20:58:30.706Z,3.63
2019-04-16T21:00:57.507Z,2.97
2019-04-16T21:03:23.904Z,2.53
2019-04-16T21:05:57.804Z,3.13
2019-04-16T21:08:24.382Z,3.00
2019-04-16T21:10:46.916Z,3.27
2019-04-16T21:13:16.300Z,3.30
2019-04-16T21:15:42.315Z,3.03
2019-04-16T21:18:11.895Z,3.20
2019-04-16T21:20:37.372Z,4.73
2019-04-16T21:23:04.088Z,3.33
2019-04-16T21:25:30.652Z,3.60
2019-04-16T21:27:59.022Z,4.07
2019-04-16T21:30:25.499Z,2.83
2019-04-16T21:35:47.940Z,3.07
2019-04-16T21:38:28.658Z,3.10
2019-04-16T21:40:56.232Z,2.10
2019-04-16T21:43:23.396Z,2.97
2019-04-16T21:45:49.876Z,2.83
2019-04-16T21:48:16.436Z,2.90
2019-04-16T21:50:44.587Z,2.30
2019-04-16T21:53:31.115Z,2.50
2019-04-16T21:55:57.604Z,2.60
2019-04-16T21:58:24.157Z,2.53
2019-04-16T22:00:53.143Z,3.00
2019-04-16T22:03:21.708Z,4.07
2019-04-16T22:05:48.994Z,3.10
2019-04-16T22:08:15.462Z,3.50
2019-04-16T22:10:41.915Z,2.90
2019-04-16T22:13:08.586Z,3.93
2019-04-16T22:15:35.097Z,2.97
2019-04-16T22:18:07.404Z,3.70
2019-04-16T22:20:31.838Z,3.40
2019-04-16T22:22:58.875Z,3.73
2019-04-16T22:25:26.864Z,4.97
2019-04-16T22:27:53.987Z,4.27
2019-04-16T22:30:20.571Z,3.83
2019-04-16T22:32:47.023Z,4.17
2019-04-16T22:35:13.496Z,3.33
2019-04-16T22:37:39.967Z,4.37
2019-04-16T22:40:22.550Z,4.50
2019-04-16T22:43:07.035Z,4.50
2019-04-16T22:45:34.779Z,4.30
2019-04-16T22:48:01.601Z,4.17
2019-04-16T22:50:47.831Z,4.50
2019-04-16T22:53:16.963Z,4.33
2019-04-16T22:55:42.819Z,3.87
2019-04-16T22:58:11.241Z,4.37
2019-04-16T23:00:44.091Z,3.57
2019-04-16T23:03:07.992Z,3.40
2019-04-16T23:05:34.464Z,3.57
2019-04-16T23:08:01.040Z,3.90
2019-04-16T23:10:27.968Z,3.83
2019-04-16T23:12:59.546Z,4.27
2019-04-16T23:15:24.216Z,5.00
2019-04-16T23:17:50.834Z,4.20
2019-04-16T23:20:29.297Z,4.50
2019-04-16T23:22:46.492Z,3.47
2019-04-16T23:25:14.080Z,4.20
2019-04-16T23:27:40.734Z,4.73
2019-04-16T23:30:07.311Z,3.97
2019-04-16T23:32:34.062Z,3.33
2019-04-16T23:35:00.637Z,4.53
2019-04-16T23:37:27.008Z,3.90
2019-04-16T23:39:53.509Z,3.83
2019-04-16T23:42:20.103Z,4.87
2019-04-16T23:44:51.463Z,5.13
2019-04-16T23:47:32.117Z,4.37
2019-04-16T23:50:03.635Z,3.67
2019-04-16T23:52:35.516Z,3.80
2019-04-16T23:55:06.847Z,3.60
2019-04-16T23:57:36.025Z,3.13
